Terminal Aerodrome Forecast
Issued by NWS Rapid City, SD

Home | Current Version | Previous Version | Graphics & Text | Print | Product List | Glossary On
Versions: 1 2 3 4 5 6 7 8 9 10 11 12 13 14
117
FTUS43 KUNR 212320
TAFRAP
TAF
KRAP 212320Z 2200/2224 14009KT P6SM SCT150
     FM220200 VRB05KT P6SM SCT250
     FM221500 17016KT P6SM SCT150=

USA.gov is the U.S. government's official web portal to all federal, state and local government web resources and services.